Aérodrome :
LOGIN :

S'inscrire | Disclaimer

   EN    FR    IT 

 










Légende :    VFR   VFR Marginal   IFR   IFR Intensif   IFR Très Intensif
Visi : 
Plafond : 
>= 8 km
>= 3000ft
5 à 8 km
1000 à 3000 ft
1500m à 5 km
500 à 1000 ft
800 à 1500m
200 à 500 ft
< 800m
< 200 ft
Symboles :   Orages  Brouillard  Fortes neiges  Fortes précipitations  Vent > 20 kt
SIGMETs :   Divers  Orages  Givrage  Turbulence  Onde Orograph.  Cendres Volcan.







- Altitude de l'aérodrome : 144 ft
- Code IATA : PGF
- Voir les cartes d'approche


LFMP - Perpignan

DERNIER METAR :
  • 211000Z AUTO 10008KT 060V150 9999 FEW037/// BKN066/// BKN078/// 15/08 Q1016 NOSIG

METARs EXPIRÉS :
  • 210930Z AUTO 10008KT 9999 FEW040/// SCT064/// BKN086/// 16/11 Q1017 TEMPO 02010KT
  • 210900Z AUTO 00000KT 9999 BKN062/// BKN078/// BKN120/// 16/10 Q1016 TEMPO 02010KT
  • 210830Z AUTO 28005KT 9999 FEW096/// BKN120/// 16/11 Q1016 TEMPO 02015G25KT BECMG RA
  • 210800Z AUTO 32005KT 290V350 9999 NCD 15/11 Q1016 TEMPO 02015G25KT 3000 +RA
  • 210730Z AUTO 32004KT 280V360 9999 FEW098/// SCT120/// 14/11 Q1016 TEMPO 02015G25KT 3000 +RA

TAF TAF LFMP
Valide du 21 à 09h jusqu'au 22 à 09h UTC


210800Z 2109/2209 32005KT 9999 BKN100
TEMPO 2109/2112 02010KT -RA
TEMPO 2204/2208 3000 SHRA FEW040TCU
ATIS : +33 4 68 63 75 12
Pas de NOTAMs connus pour ce terrain.
2 SIGMETs publiés pour la FIR Marseille (LFMM) :
 
Turbulence forte
LFMM SIGMET 5 VALID 210900/211200 LFPW
LFMM MARSEILLE FIR/UIR SEV TURB FCST WI N4145 E00945 - N4115 E00945 - N4115 E00815 - N4300 E00930 - N4145 E00945 SFC/FL080 STNR NC=
Turbulence forte
LFMM SIGMET 4 VALID 210850/211200 LFPW
LFMM MARSEILLE FIR/UIR SEV TURB FCST WI N4445 E00700 - N4400 E00700 - N4345 E00800 - N4245 E00545 - N4445 E00615 - N4445 E00700 SFC/FL080 STNR NC=



MET'MAP, la Météo Aéronautique d'un coup d'oeil ! - Copyright ORBIFLY Décembre 2007 - Disclaimer

ORBIFLY MET'MAP TEAM :

Programmation & Développement : Alexandra Zaïnal
Conception & Développement : Baudouin d'Aumeries
Co-Programmation & Développement : Marc-Olivier Méhu
Soutien technique & logistique : Manuel Goepfert

Contact : metmap@orbifly.com




SOURCES & CREDITS :

   NOAA